createdAt,value
2022-12-12T00:06:44.234Z,-2.7
2022-12-12T00:21:53.471Z,-2.8
2022-12-12T00:37:09.223Z,-2.8
2022-12-12T00:52:18.753Z,-2.8
2022-12-12T01:07:30.224Z,-2.9
2022-12-12T01:22:39.976Z,-3
2022-12-12T01:37:50.496Z,-3
2022-12-12T01:52:59.910Z,-3.1
2022-12-12T02:08:09.007Z,-3.2
2022-12-12T02:23:18.799Z,-3.2
2022-12-12T02:38:31.236Z,-3.2
2022-12-12T02:53:40.688Z,-3.3
2022-12-12T03:08:51.020Z,-3.4
2022-12-12T03:24:00.200Z,-3.5
2022-12-12T03:39:09.617Z,-3.5
2022-12-12T03:54:19.348Z,-3.5
2022-12-12T04:09:30.005Z,-3.6
2022-12-12T04:24:39.131Z,-3.7
2022-12-12T04:39:48.680Z,-3.8
2022-12-12T04:54:58.610Z,-3.8
2022-12-12T05:10:08.017Z,-3.8
2022-12-12T05:25:17.850Z,-3.9
2022-12-12T05:40:28.076Z,-3.8
2022-12-12T05:55:37.560Z,-3.9
2022-12-12T06:10:47.492Z,-3.9
2022-12-12T06:25:57.031Z,-4
2022-12-12T06:41:06.442Z,-4
2022-12-12T06:56:15.853Z,-4.1
2022-12-12T07:11:25.788Z,-4.1
2022-12-12T07:26:35.315Z,-4
2022-12-12T07:41:44.691Z,-4
2022-12-12T07:56:55.888Z,-4
2022-12-12T08:12:05.681Z,-4
2022-12-12T08:27:16.074Z,-3.9
2022-12-12T08:42:25.766Z,-3.8
2022-12-12T08:57:35.786Z,-3.6
2022-12-12T09:12:45.649Z,-3.5
2022-12-12T09:27:55.269Z,-3.3
2022-12-12T09:43:04.944Z,-3.1
2022-12-12T09:58:14.597Z,-2.9
2022-12-12T10:13:24.484Z,-2.8
2022-12-12T10:28:34.441Z,-2.6
2022-12-12T10:43:43.792Z,-2.5
2022-12-12T10:58:53.182Z,-2.3
2022-12-12T11:14:02.948Z,-2.1
2022-12-12T11:29:12.894Z,-1.9
2022-12-12T11:44:22.286Z,-1.6
2022-12-12T11:59:32.269Z,-1.2
2022-12-12T12:14:42.240Z,-0.9
2022-12-12T12:29:51.688Z,-0.5
2022-12-12T12:45:02.118Z,-0.2
2022-12-12T13:00:12.519Z,0
2022-12-12T13:15:24.219Z,0.1
2022-12-12T13:30:35.012Z,0.1
2022-12-12T13:45:44.896Z,-0.1
2022-12-12T14:00:54.800Z,-0.2
2022-12-12T14:16:04.572Z,-0.3
2022-12-12T14:31:14.581Z,-0.4
2022-12-12T14:46:24.988Z,-0.5
2022-12-12T15:01:34.371Z,-0.6
2022-12-12T15:16:47.907Z,-0.8
2022-12-12T15:31:58.621Z,-0.9
2022-12-12T15:47:08.928Z,-1.1
2022-12-12T16:02:18.002Z,-1.3
2022-12-12T16:17:27.451Z,-1.4
2022-12-12T16:32:36.623Z,-1.6
2022-12-12T16:47:46.251Z,-1.7
2022-12-12T17:02:55.838Z,-1.8
2022-12-12T17:18:04.604Z,-1.9
2022-12-12T17:33:16.591Z,-2
2022-12-12T17:48:26.080Z,-2.1
2022-12-12T18:03:36.144Z,-2.2
2022-12-12T18:18:45.506Z,-2.3
2022-12-12T18:33:54.875Z,-2.5
2022-12-12T18:49:04.130Z,-2.6
2022-12-12T19:04:16.197Z,-2.7
2022-12-12T19:19:33.647Z,-2.8
2022-12-12T19:34:42.882Z,-2.9
2022-12-12T19:49:52.315Z,-3
2022-12-12T20:05:01.370Z,-3
2022-12-12T20:20:11.751Z,-3
2022-12-12T20:35:23.432Z,-3.1
2022-12-12T20:50:32.225Z,-3.2
2022-12-12T21:05:41.230Z,-3.2
2022-12-12T21:20:50.552Z,-3.4
2022-12-12T21:36:00.318Z,-3.5
2022-12-12T21:51:09.792Z,-3.6
2022-12-12T22:06:19.286Z,-3.7
2022-12-12T22:21:32.606Z,-3.7
2022-12-12T22:36:42.225Z,-3.8
2022-12-12T22:51:51.421Z,-3.9
2022-12-12T23:07:00.854Z,-4
2022-12-12T23:22:09.920Z,-4
2022-12-12T23:37:19.367Z,-4
2022-12-12T23:52:28.732Z,-4.1
